createdAt,value
2017-05-14T00:00:19.567Z,0
2017-05-14T00:00:45.661Z,0
2017-05-14T00:01:11.754Z,0
2017-05-14T00:01:37.908Z,0
2017-05-14T00:02:04.027Z,0
2017-05-14T00:02:30.132Z,0
2017-05-14T00:02:56.226Z,0
2017-05-14T00:03:22.347Z,0
2017-05-14T00:03:48.468Z,0
2017-05-14T00:04:14.546Z,0
2017-05-14T00:04:40.671Z,0
2017-05-14T00:05:06.784Z,0
2017-05-14T00:05:32.913Z,0
2017-05-14T00:05:59.021Z,0
2017-05-14T00:06:25.132Z,0
2017-05-14T00:06:51.258Z,0
2017-05-14T00:07:17.378Z,0
2017-05-14T00:07:43.472Z,0
2017-05-14T00:08:09.629Z,0
2017-05-14T00:08:35.752Z,0
2017-05-14T00:09:01.876Z,0
2017-05-14T00:09:27.967Z,0
2017-05-14T00:09:54.097Z,0
2017-05-14T00:10:20.242Z,0
2017-05-14T00:10:46.357Z,0
2017-05-14T00:11:12.471Z,0
2017-05-14T00:11:38.584Z,0
2017-05-14T00:12:04.683Z,0
2017-05-14T00:12:30.784Z,0
2017-05-14T00:12:56.914Z,0
2017-05-14T00:13:23.074Z,0
2017-05-14T00:13:49.203Z,0
2017-05-14T00:14:15.330Z,0
2017-05-14T00:14:41.466Z,0
2017-05-14T00:15:07.601Z,0
2017-05-14T00:15:33.703Z,0
2017-05-14T00:15:59.824Z,0
2017-05-14T00:16:25.962Z,0
2017-05-14T00:16:52.061Z,0
2017-05-14T00:17:18.160Z,0
2017-05-14T00:17:44.309Z,0
2017-05-14T00:18:10.442Z,0
2017-05-14T00:18:36.577Z,0
2017-05-14T00:19:02.665Z,0
2017-05-14T00:19:28.845Z,0
2017-05-14T00:19:55.014Z,0
2017-05-14T00:20:21.149Z,0
2017-05-14T00:20:47.247Z,0
2017-05-14T00:21:13.383Z,0
2017-05-14T00:21:39.471Z,0
2017-05-14T00:22:05.564Z,0
2017-05-14T00:22:31.702Z,0
2017-05-14T00:22:57.829Z,0
2017-05-14T00:23:23.945Z,0
2017-05-14T00:23:50.080Z,0
2017-05-14T00:24:16.224Z,0
2017-05-14T00:24:42.388Z,0
2017-05-14T00:25:08.482Z,0
2017-05-14T00:25:34.600Z,0
2017-05-14T00:26:00.736Z,0
2017-05-14T00:26:26.860Z,0
2017-05-14T00:26:52.951Z,0
2017-05-14T00:27:19.110Z,0
2017-05-14T00:27:45.237Z,0
2017-05-14T00:28:11.328Z,0
2017-05-14T00:28:37.458Z,0
2017-05-14T00:29:03.594Z,0
2017-05-14T00:29:29.735Z,0
2017-05-14T00:29:55.860Z,0
2017-05-14T00:30:21.974Z,0
2017-05-14T00:30:48.079Z,0
2017-05-14T00:31:14.179Z,0
2017-05-14T00:31:40.270Z,0
2017-05-14T00:32:06.373Z,0
2017-05-14T00:32:32.480Z,0
2017-05-14T00:32:58.593Z,0
2017-05-14T00:33:24.742Z,0
2017-05-14T00:33:50.960Z,0
2017-05-14T00:34:17.050Z,0
2017-05-14T00:34:43.177Z,0
2017-05-14T00:35:09.324Z,0
2017-05-14T00:35:35.427Z,0
2017-05-14T00:36:01.533Z,0
2017-05-14T00:36:27.621Z,0
2017-05-14T00:36:53.768Z,0
2017-05-14T00:37:19.874Z,0
2017-05-14T00:37:45.964Z,0
2017-05-14T00:38:12.088Z,0
2017-05-14T00:38:38.193Z,0
2017-05-14T00:39:04.368Z,0
2017-05-14T00:39:30.458Z,0
2017-05-14T00:39:56.567Z,0
2017-05-14T00:40:22.691Z,0
2017-05-14T00:40:48.784Z,0
2017-05-14T00:41:14.916Z,0
2017-05-14T00:41:41.045Z,0
2017-05-14T00:42:07.139Z,0
2017-05-14T00:42:33.240Z,0
2017-05-14T00:42:59.347Z,0
2017-05-14T00:43:25.485Z,0
2017-05-14T00:43:51.609Z,0
2017-05-14T00:44:17.768Z,0
2017-05-14T00:44:43.889Z,0
2017-05-14T00:45:09.985Z,0
2017-05-14T00:45:36.092Z,0
2017-05-14T00:46:02.211Z,0
2017-05-14T00:46:28.317Z,0
2017-05-14T00:46:54.404Z,0
2017-05-14T00:47:20.503Z,0
2017-05-14T00:47:46.637Z,0
2017-05-14T00:48:12.805Z,0
2017-05-14T00:48:38.903Z,0
2017-05-14T00:49:05.064Z,0
2017-05-14T00:49:31.238Z,0
2017-05-14T00:49:57.352Z,0
2017-05-14T00:50:23.462Z,0
2017-05-14T00:50:49.616Z,0
2017-05-14T00:51:15.706Z,0
2017-05-14T00:51:41.812Z,0
2017-05-14T00:52:07.953Z,0
2017-05-14T00:52:34.088Z,0
2017-05-14T00:53:00.261Z,0
2017-05-14T00:53:26.353Z,0
2017-05-14T00:53:52.575Z,0
2017-05-14T00:54:18.700Z,0
2017-05-14T00:54:44.789Z,0
2017-05-14T00:55:10.949Z,0
2017-05-14T00:55:37.048Z,0
2017-05-14T00:56:03.139Z,0
2017-05-14T00:56:29.243Z,0
2017-05-14T00:56:55.348Z,0
2017-05-14T00:57:21.440Z,0
2017-05-14T00:57:47.538Z,0
2017-05-14T00:58:13.629Z,0
2017-05-14T00:58:39.734Z,0
2017-05-14T00:59:05.836Z,0
2017-05-14T00:59:31.925Z,0
2017-05-14T00:59:58.054Z,0
2017-05-14T01:00:24.160Z,0
2017-05-14T01:00:50.247Z,0
2017-05-14T01:01:16.372Z,0
2017-05-14T01:01:42.505Z,0
2017-05-14T01:02:08.598Z,0
2017-05-14T01:02:34.723Z,0
2017-05-14T01:03:00.876Z,0
2017-05-14T01:03:26.981Z,0
2017-05-14T01:03:53.085Z,0
2017-05-14T01:04:19.200Z,0
2017-05-14T01:04:45.299Z,0
2017-05-14T01:05:11.433Z,0
2017-05-14T01:05:37.549Z,0
2017-05-14T01:06:03.695Z,0
2017-05-14T01:06:29.829Z,0
2017-05-14T01:06:55.922Z,0
2017-05-14T01:07:22.011Z,0
2017-05-14T01:07:48.121Z,0
2017-05-14T01:08:14.299Z,0
2017-05-14T01:08:40.427Z,0
2017-05-14T01:09:06.567Z,0
2017-05-14T01:09:32.691Z,0
2017-05-14T01:09:58.823Z,0
2017-05-14T01:10:24.916Z,0
2017-05-14T01:10:51.054Z,0
2017-05-14T01:11:17.165Z,0
2017-05-14T01:11:43.290Z,0
2017-05-14T01:12:09.381Z,0
2017-05-14T01:12:35.488Z,0
2017-05-14T01:13:01.618Z,0
2017-05-14T01:13:27.706Z,0
2017-05-14T01:13:53.860Z,0
2017-05-14T01:14:19.948Z,0
2017-05-14T01:14:46.101Z,0
2017-05-14T01:15:12.225Z,0
2017-05-14T01:15:38.316Z,0
2017-05-14T01:16:04.472Z,0
2017-05-14T01:16:30.571Z,0
2017-05-14T01:16:56.687Z,0
2017-05-14T01:17:22.814Z,0
2017-05-14T01:17:48.946Z,0
2017-05-14T01:18:15.066Z,0
2017-05-14T01:18:41.184Z,0
2017-05-14T01:19:07.317Z,0
2017-05-14T01:19:33.435Z,0
2017-05-14T01:19:59.566Z,0
2017-05-14T01:20:25.681Z,0
2017-05-14T01:20:51.785Z,0
2017-05-14T01:21:17.918Z,0
2017-05-14T01:21:44.009Z,0
2017-05-14T01:22:10.134Z,0
2017-05-14T01:22:36.294Z,0
2017-05-14T01:23:02.409Z,0
2017-05-14T01:23:28.599Z,0
2017-05-14T01:23:54.661Z,0
2017-05-14T01:24:20.782Z,0
2017-05-14T01:24:46.873Z,0
2017-05-14T01:25:12.980Z,0
2017-05-14T01:25:39.104Z,0
2017-05-14T01:26:05.197Z,0
2017-05-14T01:26:31.319Z,0
2017-05-14T01:26:57.447Z,0
2017-05-14T01:27:23.535Z,0
2017-05-14T01:27:49.661Z,0
2017-05-14T01:28:15.796Z,0
2017-05-14T01:28:41.883Z,0
2017-05-14T01:29:08.005Z,0
2017-05-14T01:29:34.169Z,0
2017-05-14T01:30:00.289Z,0
2017-05-14T01:30:26.384Z,0
2017-05-14T01:30:52.509Z,0
2017-05-14T01:31:18.615Z,0
2017-05-14T01:31:44.749Z,0
2017-05-14T01:32:10.862Z,0
2017-05-14T01:32:36.964Z,0
2017-05-14T01:33:03.126Z,0
2017-05-14T01:33:29.242Z,0
2017-05-14T01:33:55.340Z,0
2017-05-14T01:34:21.471Z,0
2017-05-14T01:34:47.616Z,0
2017-05-14T01:35:13.708Z,0
2017-05-14T01:35:39.845Z,0
2017-05-14T01:36:05.942Z,0
2017-05-14T01:36:32.045Z,0
2017-05-14T01:36:58.134Z,0
2017-05-14T01:37:24.232Z,0
2017-05-14T01:37:50.336Z,0
2017-05-14T01:38:16.429Z,0
2017-05-14T01:38:42.544Z,0
2017-05-14T01:39:08.684Z,0
2017-05-14T01:39:34.809Z,0
2017-05-14T01:40:00.947Z,0
2017-05-14T01:40:27.055Z,0
2017-05-14T01:40:53.181Z,0
2017-05-14T01:41:19.317Z,0
2017-05-14T01:41:45.419Z,0
2017-05-14T01:42:11.511Z,0
2017-05-14T01:42:37.619Z,0
2017-05-14T01:43:03.716Z,0
2017-05-14T01:43:29.853Z,0
2017-05-14T01:43:55.984Z,0
2017-05-14T01:44:22.111Z,0
2017-05-14T01:44:48.224Z,0
2017-05-14T01:45:14.379Z,0
2017-05-14T01:45:40.513Z,0
2017-05-14T01:46:06.603Z,0
2017-05-14T01:46:32.703Z,0
2017-05-14T01:46:58.807Z,0
2017-05-14T01:47:24.898Z,0
2017-05-14T01:47:51.028Z,0
2017-05-14T01:48:17.158Z,0
2017-05-14T01:48:43.249Z,0
2017-05-14T01:49:09.386Z,0
2017-05-14T01:49:35.498Z,0
2017-05-14T01:50:01.647Z,0
2017-05-14T01:50:27.753Z,0
2017-05-14T01:50:53.897Z,0
2017-05-14T01:51:20.043Z,0
2017-05-14T01:51:46.148Z,0
2017-05-14T01:52:12.240Z,0
2017-05-14T01:52:38.380Z,0
2017-05-14T01:53:04.562Z,0
2017-05-14T01:53:30.661Z,0
2017-05-14T01:53:56.791Z,0
2017-05-14T01:54:22.881Z,0
2017-05-14T01:54:48.977Z,0
2017-05-14T01:55:15.083Z,0
2017-05-14T01:55:41.205Z,0
2017-05-14T01:56:07.319Z,0
2017-05-14T01:56:33.427Z,0
2017-05-14T01:56:59.549Z,0
2017-05-14T01:57:25.642Z,0
2017-05-14T01:57:51.830Z,0
2017-05-14T01:58:17.929Z,0
2017-05-14T01:58:44.029Z,0
2017-05-14T01:59:10.151Z,0
2017-05-14T01:59:36.289Z,0
2017-05-14T02:00:02.399Z,0
2017-05-14T02:00:28.525Z,0
2017-05-14T02:00:54.614Z,0
2017-05-14T02:01:20.745Z,0
2017-05-14T02:01:46.844Z,0
2017-05-14T02:02:12.984Z,0
2017-05-14T02:02:39.111Z,0
2017-05-14T02:03:05.220Z,0
2017-05-14T02:03:31.379Z,0
2017-05-14T02:03:57.474Z,0
2017-05-14T02:04:23.515Z,0
2017-05-14T02:04:49.644Z,0
2017-05-14T02:05:15.798Z,0
2017-05-14T02:05:41.887Z,0
2017-05-14T02:06:08.058Z,0
2017-05-14T02:06:34.126Z,0
2017-05-14T02:07:00.236Z,0
2017-05-14T02:07:26.337Z,0
2017-05-14T02:07:52.440Z,0
2017-05-14T02:08:18.531Z,0
2017-05-14T02:08:44.652Z,0
2017-05-14T02:09:10.841Z,0
2017-05-14T02:09:36.961Z,0
2017-05-14T02:10:03.052Z,0
2017-05-14T02:10:29.161Z,0
2017-05-14T02:10:55.316Z,0
2017-05-14T02:11:21.428Z,0
2017-05-14T02:11:47.534Z,0
2017-05-14T02:12:13.672Z,0
2017-05-14T02:12:39.748Z,0
2017-05-14T02:13:05.850Z,0
2017-05-14T02:13:31.985Z,0
2017-05-14T02:13:58.099Z,0
2017-05-14T02:14:24.221Z,0
2017-05-14T02:14:50.327Z,0
2017-05-14T02:15:16.414Z,0
2017-05-14T02:15:42.515Z,0
2017-05-14T02:16:08.633Z,0
2017-05-14T02:16:34.810Z,0
2017-05-14T02:17:00.917Z,0
2017-05-14T02:17:27.030Z,0
2017-05-14T02:17:53.154Z,0
2017-05-14T02:18:19.316Z,0
2017-05-14T02:18:45.406Z,0
2017-05-14T02:19:11.527Z,0
2017-05-14T02:19:37.715Z,0
2017-05-14T02:20:03.860Z,0
2017-05-14T02:20:29.973Z,0
2017-05-14T02:20:56.127Z,0
2017-05-14T02:21:22.224Z,0
2017-05-14T02:21:48.358Z,0
2017-05-14T02:22:14.448Z,0
2017-05-14T02:22:40.546Z,0
2017-05-14T02:23:06.689Z,0
2017-05-14T02:23:32.799Z,0
2017-05-14T02:23:58.938Z,0
2017-05-14T02:24:25.100Z,0
2017-05-14T02:24:51.250Z,0
2017-05-14T02:25:17.339Z,0
2017-05-14T02:25:43.446Z,0
2017-05-14T02:26:09.546Z,0
2017-05-14T02:26:35.644Z,0
2017-05-14T02:27:01.766Z,0
2017-05-14T02:27:27.882Z,0
2017-05-14T02:27:54.019Z,0
2017-05-14T02:28:20.142Z,0
2017-05-14T02:28:46.231Z,0
2017-05-14T02:29:12.377Z,0
2017-05-14T02:29:38.531Z,0
2017-05-14T02:30:04.645Z,0
2017-05-14T02:30:30.772Z,0
2017-05-14T02:30:56.905Z,0
2017-05-14T02:31:23.044Z,0
2017-05-14T02:31:49.168Z,0
2017-05-14T02:32:15.261Z,0
2017-05-14T02:32:41.367Z,0
2017-05-14T02:33:07.464Z,0
2017-05-14T02:33:33.557Z,0
2017-05-14T02:33:59.689Z,0
2017-05-14T02:34:25.791Z,0
2017-05-14T02:34:51.876Z,0
2017-05-14T02:35:17.975Z,0
2017-05-14T02:35:44.107Z,0
2017-05-14T02:36:10.197Z,0
2017-05-14T02:36:36.294Z,0
2017-05-14T02:37:02.400Z,0
2017-05-14T02:37:28.520Z,0
2017-05-14T02:37:54.656Z,0
2017-05-14T02:38:20.739Z,0
2017-05-14T02:38:46.860Z,0
2017-05-14T02:39:13.020Z,0
2017-05-14T02:39:39.109Z,0
2017-05-14T02:40:05.254Z,0
2017-05-14T02:40:31.360Z,0
2017-05-14T02:40:57.452Z,0
2017-05-14T02:41:23.540Z,0
2017-05-14T02:41:49.651Z,0
2017-05-14T02:42:15.745Z,0
2017-05-14T02:42:41.835Z,0
2017-05-14T02:43:07.989Z,0
2017-05-14T02:43:34.082Z,0
2017-05-14T02:44:00.217Z,0
2017-05-14T02:44:26.363Z,0
2017-05-14T02:44:52.477Z,0
2017-05-14T02:45:18.611Z,0
2017-05-14T02:45:44.786Z,0
2017-05-14T02:46:10.922Z,0
2017-05-14T02:46:37.026Z,0
2017-05-14T02:47:03.127Z,0
2017-05-14T02:47:29.218Z,0
2017-05-14T02:47:55.372Z,0
2017-05-14T02:48:21.504Z,0
2017-05-14T02:48:47.623Z,0
2017-05-14T02:49:13.772Z,0
2017-05-14T02:49:39.914Z,0
2017-05-14T02:50:06.096Z,0
2017-05-14T02:50:32.196Z,0
2017-05-14T02:50:58.334Z,0
2017-05-14T02:51:24.504Z,0
2017-05-14T02:51:50.568Z,0
2017-05-14T02:52:16.654Z,0
2017-05-14T02:52:42.776Z,0
2017-05-14T02:53:08.964Z,0
2017-05-14T02:53:35.083Z,0
2017-05-14T02:54:01.205Z,0
2017-05-14T02:54:27.368Z,0
2017-05-14T02:54:53.539Z,0
2017-05-14T02:55:19.652Z,0
2017-05-14T02:55:45.789Z,0
2017-05-14T02:56:11.913Z,0
2017-05-14T02:56:38.028Z,4
2017-05-14T02:57:04.189Z,4
2017-05-14T02:57:30.345Z,4
2017-05-14T02:57:56.484Z,4
2017-05-14T02:58:22.636Z,4
2017-05-14T02:58:48.741Z,4
2017-05-14T02:59:14.905Z,4
2017-05-14T02:59:41.054Z,4
2017-05-14T03:00:07.176Z,0
2017-05-14T03:00:33.310Z,0
2017-05-14T03:00:59.427Z,4
2017-05-14T03:01:25.516Z,4
2017-05-14T03:01:51.646Z,4
2017-05-14T03:02:17.834Z,4
2017-05-14T03:02:43.923Z,4
2017-05-14T03:03:10.071Z,8
2017-05-14T03:03:36.177Z,4
2017-05-14T03:04:02.292Z,4
2017-05-14T03:04:28.413Z,4
2017-05-14T03:04:54.573Z,8
2017-05-14T03:05:20.718Z,8
2017-05-14T03:05:46.825Z,4
2017-05-14T03:06:12.934Z,8
2017-05-14T03:06:39.034Z,8
2017-05-14T03:07:05.181Z,12
2017-05-14T03:07:31.260Z,8
2017-05-14T03:07:57.425Z,12
2017-05-14T03:08:23.557Z,12
2017-05-14T03:08:49.676Z,12
2017-05-14T03:09:15.813Z,12
2017-05-14T03:09:41.925Z,12
2017-05-14T03:10:08.051Z,12
2017-05-14T03:10:34.165Z,16
2017-05-14T03:11:00.324Z,16
2017-05-14T03:11:26.419Z,16
2017-05-14T03:11:52.523Z,20
2017-05-14T03:12:18.620Z,16
2017-05-14T03:12:44.709Z,20
2017-05-14T03:13:10.819Z,24
2017-05-14T03:13:36.943Z,24
2017-05-14T03:14:03.058Z,24
2017-05-14T03:14:29.192Z,28
2017-05-14T03:14:55.316Z,28
2017-05-14T03:15:21.404Z,28
2017-05-14T03:15:47.529Z,32
2017-05-14T03:16:13.988Z,32
2017-05-14T03:16:40.131Z,36
2017-05-14T03:17:06.228Z,36
2017-05-14T03:17:32.339Z,40
2017-05-14T03:17:58.444Z,40
2017-05-14T03:18:24.568Z,44
2017-05-14T03:18:50.685Z,44
2017-05-14T03:19:16.788Z,48
2017-05-14T03:19:42.948Z,52
2017-05-14T03:20:09.037Z,52
2017-05-14T03:20:35.162Z,56
2017-05-14T03:21:01.267Z,60
2017-05-14T03:21:27.413Z,64
2017-05-14T03:21:53.534Z,68
2017-05-14T03:22:19.686Z,68
2017-05-14T03:22:45.814Z,72
2017-05-14T03:23:11.923Z,76
2017-05-14T03:23:38.084Z,80
2017-05-14T03:24:04.233Z,80
2017-05-14T03:24:30.394Z,88
2017-05-14T03:24:56.509Z,92
2017-05-14T03:25:22.604Z,96
2017-05-14T03:25:48.710Z,104
2017-05-14T03:26:14.802Z,108
2017-05-14T03:26:40.892Z,112
2017-05-14T03:27:07.002Z,120
2017-05-14T03:27:33.098Z,124
2017-05-14T03:27:59.227Z,132
2017-05-14T03:28:25.339Z,136
2017-05-14T03:28:51.436Z,144
2017-05-14T03:29:17.543Z,148
2017-05-14T03:29:43.635Z,152
2017-05-14T03:30:09.727Z,160
2017-05-14T03:30:35.837Z,164
2017-05-14T03:31:01.961Z,176
2017-05-14T03:31:28.050Z,180
2017-05-14T03:31:54.154Z,188
2017-05-14T03:32:20.283Z,192
2017-05-14T03:32:46.395Z,204
2017-05-14T03:33:12.550Z,208
2017-05-14T03:33:38.664Z,216
2017-05-14T03:34:04.802Z,228
2017-05-14T03:34:30.981Z,236
2017-05-14T03:34:57.068Z,244
2017-05-14T03:35:23.173Z,252
2017-05-14T03:35:49.273Z,260
2017-05-14T03:36:15.410Z,268
2017-05-14T03:36:41.514Z,276
2017-05-14T03:37:07.647Z,288
2017-05-14T03:37:33.764Z,296
2017-05-14T03:37:59.887Z,308
2017-05-14T03:38:26.017Z,320
2017-05-14T03:38:52.156Z,324
2017-05-14T03:39:18.280Z,340
2017-05-14T03:39:44.440Z,348
2017-05-14T03:40:10.560Z,360
2017-05-14T03:40:36.651Z,372
2017-05-14T03:41:02.789Z,384
2017-05-14T03:41:28.913Z,396
2017-05-14T03:41:55.029Z,408
2017-05-14T03:42:21.134Z,416
2017-05-14T03:42:47.262Z,428
2017-05-14T03:43:13.400Z,444
2017-05-14T03:43:39.501Z,452
2017-05-14T03:44:05.660Z,468
2017-05-14T03:44:31.802Z,484
2017-05-14T03:44:57.951Z,496
2017-05-14T03:45:24.040Z,508
2017-05-14T03:45:50.154Z,524
2017-05-14T03:46:16.271Z,540
2017-05-14T03:46:42.363Z,552
2017-05-14T03:47:08.463Z,564
2017-05-14T03:47:34.567Z,580
2017-05-14T03:48:00.680Z,592
2017-05-14T03:48:26.781Z,608
2017-05-14T03:48:52.941Z,620
2017-05-14T03:49:19.058Z,640
2017-05-14T03:49:45.229Z,656
2017-05-14T03:50:11.325Z,680
2017-05-14T03:50:37.451Z,696
2017-05-14T03:51:03.557Z,720
2017-05-14T03:51:29.642Z,740
2017-05-14T03:51:55.768Z,764
2017-05-14T03:52:21.871Z,784
2017-05-14T03:52:47.963Z,808
2017-05-14T03:53:14.085Z,832
2017-05-14T03:53:40.219Z,860
2017-05-14T03:54:06.338Z,888
2017-05-14T03:54:32.452Z,912
2017-05-14T03:54:58.586Z,940
2017-05-14T03:55:24.683Z,964
2017-05-14T03:55:50.811Z,988
2017-05-14T03:56:16.901Z,1012
2017-05-14T03:56:42.997Z,1036
2017-05-14T03:57:09.131Z,1060
2017-05-14T03:57:35.222Z,1092
2017-05-14T03:58:01.339Z,1128
2017-05-14T03:58:27.497Z,1164
2017-05-14T03:58:53.592Z,1200
2017-05-14T03:59:19.708Z,1232
2017-05-14T03:59:45.814Z,1268
2017-05-14T04:00:11.968Z,1308
2017-05-14T04:00:38.057Z,1348
2017-05-14T04:01:04.159Z,1388
2017-05-14T04:01:30.273Z,1428
2017-05-14T04:01:56.381Z,1460
2017-05-14T04:02:22.507Z,1476
2017-05-14T04:02:48.645Z,1488
2017-05-14T04:03:14.774Z,1500
2017-05-14T04:03:40.902Z,1504
2017-05-14T04:04:06.989Z,1516
2017-05-14T04:04:33.122Z,1520
2017-05-14T04:04:59.227Z,1524
2017-05-14T04:05:25.340Z,1536
2017-05-14T04:05:51.436Z,1556
2017-05-14T04:06:17.625Z,1576
2017-05-14T04:06:43.715Z,1612
2017-05-14T04:07:09.819Z,1652
2017-05-14T04:07:35.909Z,1692
2017-05-14T04:08:02.064Z,1736
2017-05-14T04:08:28.173Z,1788
2017-05-14T04:08:54.308Z,1844
2017-05-14T04:09:20.456Z,1892
2017-05-14T04:09:46.588Z,1932
2017-05-14T04:10:12.705Z,1964
2017-05-14T04:10:38.802Z,1976
2017-05-14T04:11:04.932Z,1996
2017-05-14T04:11:31.045Z,2012
2017-05-14T04:11:57.134Z,2028
2017-05-14T04:12:23.236Z,2040
2017-05-14T04:12:49.361Z,2064
2017-05-14T04:13:15.524Z,2084
2017-05-14T04:13:41.666Z,2108
2017-05-14T04:14:07.789Z,2132
2017-05-14T04:14:33.894Z,2164
2017-05-14T04:15:00.016Z,2180
2017-05-14T04:15:26.108Z,2192
2017-05-14T04:15:52.241Z,2204
2017-05-14T04:16:18.338Z,2216
2017-05-14T04:16:44.521Z,2228
2017-05-14T04:17:10.637Z,2248
2017-05-14T04:17:36.785Z,2284
2017-05-14T04:18:02.924Z,2316
2017-05-14T04:18:29.004Z,2364
2017-05-14T04:18:55.122Z,2408
2017-05-14T04:19:21.256Z,2436
2017-05-14T04:19:47.433Z,2448
2017-05-14T04:20:13.568Z,2464
2017-05-14T04:20:39.701Z,2476
2017-05-14T04:21:05.829Z,2488
2017-05-14T04:21:31.917Z,2496
2017-05-14T04:21:58.018Z,2516
2017-05-14T04:22:24.152Z,2536
2017-05-14T04:22:50.288Z,2576
2017-05-14T04:23:16.413Z,2620
2017-05-14T04:23:42.602Z,2664
2017-05-14T04:24:08.798Z,2712
2017-05-14T04:24:34.921Z,2748
2017-05-14T04:25:01.054Z,2792
2017-05-14T04:25:27.148Z,2824
2017-05-14T04:25:53.262Z,2864
2017-05-14T04:26:19.370Z,2908
2017-05-14T04:26:45.463Z,2960
2017-05-14T04:27:11.602Z,3028
2017-05-14T04:27:37.731Z,3120
2017-05-14T04:28:03.886Z,3220
2017-05-14T04:28:30.002Z,3296
2017-05-14T04:28:56.125Z,3336
2017-05-14T04:29:22.217Z,3376
2017-05-14T04:29:48.349Z,3416
2017-05-14T04:30:14.472Z,3456
2017-05-14T04:30:40.563Z,3488
2017-05-14T04:31:06.672Z,3540
2017-05-14T04:31:32.771Z,3580
2017-05-14T04:31:58.886Z,3608
2017-05-14T04:32:24.991Z,3640
2017-05-14T04:32:51.148Z,3664
2017-05-14T04:33:17.235Z,3692
2017-05-14T04:33:43.384Z,3712
2017-05-14T04:34:09.519Z,3744
2017-05-14T04:34:35.606Z,3776
2017-05-14T04:35:01.709Z,3812
2017-05-14T04:35:27.821Z,3844
2017-05-14T04:35:53.922Z,3872
2017-05-14T04:36:20.056Z,3884
2017-05-14T04:36:46.143Z,3900
2017-05-14T04:37:12.242Z,3928
2017-05-14T04:37:38.347Z,3944
2017-05-14T04:38:04.489Z,3980
2017-05-14T04:38:30.585Z,4016
2017-05-14T04:38:56.717Z,4064
2017-05-14T04:39:22.834Z,4112
2017-05-14T04:39:48.950Z,4164
2017-05-14T04:40:15.130Z,4212
2017-05-14T04:40:41.230Z,4248
2017-05-14T04:41:07.335Z,4284
2017-05-14T04:41:33.425Z,4316
2017-05-14T04:41:59.519Z,4360
2017-05-14T04:42:25.654Z,4404
2017-05-14T04:42:51.747Z,4440
2017-05-14T04:43:17.887Z,4464
2017-05-14T04:43:43.994Z,4492
2017-05-14T04:44:10.117Z,4520
2017-05-14T04:44:36.208Z,4552
2017-05-14T04:45:02.314Z,4588
2017-05-14T04:45:28.440Z,4628
2017-05-14T04:45:54.533Z,4676
2017-05-14T04:46:20.634Z,4728
2017-05-14T04:46:46.767Z,4772
2017-05-14T04:47:12.956Z,4816
2017-05-14T04:47:39.054Z,4868
2017-05-14T04:48:05.216Z,4908
2017-05-14T04:48:31.355Z,4948
2017-05-14T04:48:57.450Z,5000
2017-05-14T04:49:23.555Z,5040
2017-05-14T04:49:49.650Z,5092
2017-05-14T04:50:15.789Z,5144
2017-05-14T04:50:41.897Z,5192
2017-05-14T04:51:07.993Z,5224
2017-05-14T04:51:34.099Z,5256
2017-05-14T04:52:00.214Z,5288
2017-05-14T04:52:26.311Z,5324
2017-05-14T04:52:52.419Z,5352
2017-05-14T04:53:18.514Z,5376
2017-05-14T04:53:44.626Z,5404
2017-05-14T04:54:10.734Z,5416
2017-05-14T04:54:36.831Z,5424
2017-05-14T04:55:02.919Z,5456
2017-05-14T04:55:29.027Z,5488
2017-05-14T04:55:55.126Z,5516
2017-05-14T04:56:21.215Z,5556
2017-05-14T04:56:47.315Z,5584
2017-05-14T04:57:13.406Z,5608
2017-05-14T04:57:39.540Z,5628
2017-05-14T04:58:05.692Z,5656
2017-05-14T04:58:31.784Z,5684
2017-05-14T04:58:57.943Z,5712
2017-05-14T04:59:24.068Z,5748
2017-05-14T04:59:50.158Z,5792
2017-05-14T05:00:16.282Z,5832
2017-05-14T05:00:42.389Z,5856
2017-05-14T05:01:08.474Z,5896
2017-05-14T05:01:34.600Z,5908
2017-05-14T05:02:00.705Z,5928
2017-05-14T05:02:26.847Z,5960
2017-05-14T05:02:52.952Z,5984
2017-05-14T05:03:19.065Z,6000
2017-05-14T05:03:45.168Z,6020
2017-05-14T05:04:11.302Z,6040
2017-05-14T05:04:37.438Z,6076
2017-05-14T05:05:03.563Z,6084
2017-05-14T05:05:29.667Z,6108
2017-05-14T05:05:55.758Z,6136
2017-05-14T05:06:21.853Z,6160
2017-05-14T05:06:47.986Z,6184
2017-05-14T05:07:14.078Z,6204
2017-05-14T05:07:40.170Z,6248
2017-05-14T05:08:06.330Z,6280
2017-05-14T05:08:32.427Z,6300
2017-05-14T05:08:58.519Z,6324
2017-05-14T05:09:24.676Z,6332
2017-05-14T05:09:50.803Z,6348
2017-05-14T05:10:16.920Z,6380
2017-05-14T05:10:43.051Z,6396
2017-05-14T05:11:09.158Z,6416
2017-05-14T05:11:35.272Z,6436
2017-05-14T05:12:01.369Z,6452
2017-05-14T05:12:27.476Z,6480
2017-05-14T05:12:53.563Z,6496
2017-05-14T05:13:19.733Z,6480
2017-05-14T05:13:45.887Z,6488
2017-05-14T05:14:11.990Z,6508
2017-05-14T05:14:38.124Z,6532
2017-05-14T05:15:04.213Z,6548
2017-05-14T05:15:30.340Z,6564
2017-05-14T05:15:56.499Z,6588
2017-05-14T05:16:22.613Z,6612
2017-05-14T05:16:48.734Z,6628
2017-05-14T05:17:14.840Z,6636
2017-05-14T05:17:40.989Z,6652
2017-05-14T05:18:07.078Z,6684
2017-05-14T05:18:33.186Z,6712
2017-05-14T05:18:59.308Z,6752
2017-05-14T05:19:25.458Z,6772
2017-05-14T05:19:51.601Z,6792
2017-05-14T05:20:17.748Z,6812
2017-05-14T05:20:43.853Z,6840
2017-05-14T05:21:09.946Z,6888
2017-05-14T05:21:36.035Z,6948
2017-05-14T05:22:02.168Z,7004
2017-05-14T05:22:28.264Z,7052
2017-05-14T05:22:54.379Z,7132
2017-05-14T05:23:20.512Z,7236
2017-05-14T05:23:46.637Z,7344
2017-05-14T05:24:12.749Z,7452
2017-05-14T05:24:38.852Z,7564
2017-05-14T05:25:04.942Z,7676
2017-05-14T05:25:31.050Z,7820
2017-05-14T05:25:57.146Z,7996
2017-05-14T05:26:23.285Z,8192
2017-05-14T05:26:49.420Z,8400
2017-05-14T05:27:15.519Z,8676
2017-05-14T05:27:41.612Z,9008
2017-05-14T05:28:07.715Z,9340
2017-05-14T05:28:33.906Z,9688
2017-05-14T05:29:00.041Z,9996
2017-05-14T05:29:26.142Z,10248
2017-05-14T05:29:52.249Z,10452
2017-05-14T05:30:18.368Z,10600
2017-05-14T05:30:44.497Z,10692
2017-05-14T05:31:10.588Z,10744
2017-05-14T05:31:36.691Z,10756
2017-05-14T05:32:02.798Z,10752
2017-05-14T05:32:28.886Z,10728
2017-05-14T05:32:54.986Z,10652
2017-05-14T05:33:21.119Z,10476
2017-05-14T05:33:47.209Z,10260
2017-05-14T05:34:13.304Z,10052
2017-05-14T05:34:39.409Z,9884
2017-05-14T05:35:05.503Z,9712
2017-05-14T05:35:31.620Z,9568
2017-05-14T05:35:57.750Z,9412
2017-05-14T05:36:23.871Z,9232
2017-05-14T05:36:49.991Z,9080
2017-05-14T05:37:16.099Z,8920
2017-05-14T05:37:42.222Z,8744
2017-05-14T05:38:08.381Z,8432
2017-05-14T05:38:34.476Z,8528
2017-05-14T05:39:00.615Z,8392
2017-05-14T05:39:26.724Z,8316
2017-05-14T05:39:52.848Z,8060
2017-05-14T05:40:18.965Z,7992
2017-05-14T05:40:45.071Z,8000
2017-05-14T05:41:11.200Z,7904
2017-05-14T05:41:37.299Z,7572
2017-05-14T05:42:03.392Z,7612
2017-05-14T05:42:29.483Z,7764
2017-05-14T05:42:55.621Z,7708
2017-05-14T05:43:21.774Z,7520
2017-05-14T05:43:47.866Z,7716
2017-05-14T05:44:13.997Z,7868
2017-05-14T05:44:40.096Z,7984
2017-05-14T05:45:06.188Z,8104
2017-05-14T05:45:32.314Z,8172
2017-05-14T05:45:58.475Z,8176
2017-05-14T05:46:24.563Z,8196
2017-05-14T05:46:50.665Z,8200
2017-05-14T05:47:16.785Z,8172
2017-05-14T05:47:42.892Z,8212
2017-05-14T05:48:09.022Z,8212
2017-05-14T05:48:35.112Z,8196
2017-05-14T05:49:01.294Z,8164
2017-05-14T05:49:27.401Z,8136
2017-05-14T05:49:53.512Z,8148
2017-05-14T05:50:19.614Z,8116
2017-05-14T05:50:45.716Z,8148
2017-05-14T05:51:11.807Z,8200
2017-05-14T05:51:37.903Z,8240
2017-05-14T05:52:04.009Z,8248
2017-05-14T05:52:30.133Z,8252
2017-05-14T05:52:56.223Z,8204
2017-05-14T05:53:22.355Z,8152
2017-05-14T05:53:48.451Z,8136
2017-05-14T05:54:14.540Z,8132
2017-05-14T05:54:40.674Z,8180
2017-05-14T05:55:06.803Z,8248
2017-05-14T05:55:32.891Z,8312
2017-05-14T05:55:59.018Z,8312
2017-05-14T05:56:25.179Z,8304
2017-05-14T05:56:51.337Z,8288
2017-05-14T05:57:17.379Z,8272
2017-05-14T05:57:43.484Z,8348
2017-05-14T05:58:09.573Z,8448
2017-05-14T05:58:35.703Z,8540
2017-05-14T05:59:01.817Z,8620
2017-05-14T05:59:27.972Z,8624
2017-05-14T05:59:54.105Z,8636
2017-05-14T06:00:20.192Z,8688
2017-05-14T06:00:46.341Z,8648
2017-05-14T06:01:12.446Z,8644
2017-05-14T06:01:38.537Z,8696
2017-05-14T06:02:04.632Z,8704
2017-05-14T06:02:30.740Z,8700
2017-05-14T06:02:56.833Z,8736
2017-05-14T06:03:22.969Z,8804
2017-05-14T06:03:49.073Z,8880
2017-05-14T06:04:15.194Z,8928
2017-05-14T06:04:41.301Z,8968
2017-05-14T06:05:07.441Z,8980
2017-05-14T06:05:33.538Z,8956
2017-05-14T06:05:59.673Z,8904
2017-05-14T06:06:25.767Z,8976
2017-05-14T06:06:51.881Z,9004
2017-05-14T06:07:18.047Z,9032
2017-05-14T06:07:44.144Z,9056
2017-05-14T06:08:10.234Z,9068
2017-05-14T06:08:36.361Z,9136